sensor_id;sensor_type;location;lat;lon;timestamp;pressure;altitude;pressure_sealevel;temperature;humidity
53916;BME280;39827;49.652;18.770;2024-02-21T00:00:47;75115.59;;;-149.71;87.60
53916;BME280;39827;49.652;18.770;2024-02-21T00:03:13;75105.53;;;-149.71;87.47
53916;BME280;39827;49.652;18.770;2024-02-21T00:05:38;75111.56;;;-149.71;87.51
53916;BME280;39827;49.652;18.770;2024-02-21T00:08:04;75109.56;;;-149.71;87.53
53916;BME280;39827;49.652;18.770;2024-02-21T00:10:29;75129.66;;;-149.71;88.07
53916;BME280;39827;49.652;18.770;2024-02-21T00:12:57;75115.59;;;-149.71;87.81
53916;BME280;39827;49.652;18.770;2024-02-21T00:15:22;75107.53;;;-149.71;87.42
53916;BME280;39827;49.652;18.770;2024-02-21T00:17:48;75115.59;;;-149.71;87.27
53916;BME280;39827;49.652;18.770;2024-02-21T00:20:14;75107.53;;;-149.71;87.10
53916;BME280;39827;49.652;18.770;2024-02-21T00:22:39;75123.63;;;-149.71;87.34
53916;BME280;39827;49.652;18.770;2024-02-21T00:25:05;75131.66;;;-149.71;87.83
53916;BME280;39827;49.652;18.770;2024-02-21T00:27:30;75123.63;;;-149.71;87.89
53916;BME280;39827;49.652;18.770;2024-02-21T00:29:57;75123.63;;;-149.71;88.17
53916;BME280;39827;49.652;18.770;2024-02-21T00:32:22;75125.63;;;-149.71;88.22
53916;BME280;39827;49.652;18.770;2024-02-21T00:34:48;75119.59;;;-149.71;88.22
53916;BME280;39827;49.652;18.770;2024-02-21T00:37:13;75123.63;;;-149.71;88.08
53916;BME280;39827;49.652;18.770;2024-02-21T00:39:38;75119.59;;;-149.71;87.66
53916;BME280;39827;49.652;18.770;2024-02-21T00:42:04;75117.59;;;-149.71;87.80
53916;BME280;39827;49.652;18.770;2024-02-21T00:44:30;75147.75;;;-149.71;88.18
53916;BME280;39827;49.652;18.770;2024-02-21T00:46:55;75151.75;;;-149.71;88.57
53916;BME280;39827;49.652;18.770;2024-02-21T00:49:20;75145.72;;;-149.71;88.33
53916;BME280;39827;49.652;18.770;2024-02-21T00:51:46;75151.75;;;-149.71;88.53
53916;BME280;39827;49.652;18.770;2024-02-21T00:54:12;75147.75;;;-149.71;88.38
53916;BME280;39827;49.652;18.770;2024-02-21T00:56:37;75131.66;;;-149.71;88.34
53916;BME280;39827;49.652;18.770;2024-02-21T00:59:02;75141.72;;;-149.71;88.59
53916;BME280;39827;49.652;18.770;2024-02-21T01:01:28;75131.66;;;-149.71;88.62
53916;BME280;39827;49.652;18.770;2024-02-21T01:03:53;75127.63;;;-149.71;88.41
53916;BME280;39827;49.652;18.770;2024-02-21T01:06:22;75129.66;;;-149.71;88.40
53916;BME280;39827;49.652;18.770;2024-02-21T01:08:47;75147.75;;;-149.71;88.90
53916;BME280;39827;49.652;18.770;2024-02-21T01:11:13;75125.63;;;-149.71;88.48
53916;BME280;39827;49.652;18.770;2024-02-21T01:13:39;75131.66;;;-149.71;88.33
53916;BME280;39827;49.652;18.770;2024-02-21T01:16:04;75127.63;;;-149.71;88.10
53916;BME280;39827;49.652;18.770;2024-02-21T01:18:32;75139.69;;;-149.71;88.52
53916;BME280;39827;49.652;18.770;2024-02-21T01:20:57;75119.59;;;-149.71;88.29
53916;BME280;39827;49.652;18.770;2024-02-21T01:23:22;75111.56;;;-149.71;88.04
53916;BME280;39827;49.652;18.770;2024-02-21T01:25:48;75109.56;;;-149.71;88.31
53916;BME280;39827;49.652;18.770;2024-02-21T01:28:13;75119.59;;;-149.71;88.10
53916;BME280;39827;49.652;18.770;2024-02-21T01:30:39;75121.63;;;-149.71;88.16
53916;BME280;39827;49.652;18.770;2024-02-21T01:33:04;75101.53;;;-149.71;87.89
53916;BME280;39827;49.652;18.770;2024-02-21T01:35:29;75103.53;;;-149.71;87.85
53916;BME280;39827;49.652;18.770;2024-02-21T01:37:55;75107.53;;;-149.71;87.66
53916;BME280;39827;49.652;18.770;2024-02-21T01:40:20;75127.63;;;-149.71;88.42
53916;BME280;39827;49.652;18.770;2024-02-21T01:42:45;75127.63;;;-149.71;88.64
53916;BME280;39827;49.652;18.770;2024-02-21T01:45:13;75121.63;;;-149.71;88.73
53916;BME280;39827;49.652;18.770;2024-02-21T01:47:38;75117.59;;;-149.71;88.60
53916;BME280;39827;49.652;18.770;2024-02-21T01:50:04;75125.63;;;-149.71;88.81
53916;BME280;39827;49.652;18.770;2024-02-21T01:52:30;75103.53;;;-149.71;88.71
53916;BME280;39827;49.652;18.770;2024-02-21T01:54:57;75103.53;;;-149.71;88.59
53916;BME280;39827;49.652;18.770;2024-02-21T01:57:23;75107.53;;;-149.71;88.13
53916;BME280;39827;49.652;18.770;2024-02-21T01:59:49;75097.50;;;-149.71;88.32
53916;BME280;39827;49.652;18.770;2024-02-21T02:02:15;75087.44;;;-149.71;88.31
53916;BME280;39827;49.652;18.770;2024-02-21T02:04:42;75083.44;;;-149.71;88.41
53916;BME280;39827;49.652;18.770;2024-02-21T02:07:07;75081.41;;;-149.71;88.46
53916;BME280;39827;49.652;18.770;2024-02-21T02:09:34;75081.41;;;-149.71;88.54
53916;BME280;39827;49.652;18.770;2024-02-21T02:12:00;75079.41;;;-149.71;88.33
53916;BME280;39827;49.652;18.770;2024-02-21T02:14:26;75073.38;;;-149.71;88.59
53916;BME280;39827;49.652;18.770;2024-02-21T02:16:51;75069.38;;;-149.71;88.20
53916;BME280;39827;49.652;18.770;2024-02-21T02:19:16;75071.38;;;-149.71;87.86
53916;BME280;39827;49.652;18.770;2024-02-21T02:21:46;75067.34;;;-149.71;87.80
53916;BME280;39827;49.652;18.770;2024-02-21T02:24:13;75063.34;;;-149.71;87.75
53916;BME280;39827;49.652;18.770;2024-02-21T02:26:39;75055.28;;;-149.71;87.27
53916;BME280;39827;49.652;18.770;2024-02-21T02:29:05;75067.34;;;-149.71;87.31
53916;BME280;39827;49.652;18.770;2024-02-21T02:31:30;75071.38;;;-149.71;87.31
53916;BME280;39827;49.652;18.770;2024-02-21T02:33:56;75067.34;;;-149.71;87.23
53916;BME280;39827;49.652;18.770;2024-02-21T02:36:21;75073.38;;;-149.71;87.51
53916;BME280;39827;49.652;18.770;2024-02-21T02:38:46;75079.41;;;-149.71;87.45
53916;BME280;39827;49.652;18.770;2024-02-21T02:41:12;75079.41;;;-149.71;87.31
53916;BME280;39827;49.652;18.770;2024-02-21T02:43:37;75075.38;;;-149.71;87.33
53916;BME280;39827;49.652;18.770;2024-02-21T02:46:03;75079.41;;;-149.71;87.11
53916;BME280;39827;49.652;18.770;2024-02-21T02:48:29;75089.47;;;-149.71;87.52
53916;BME280;39827;49.652;18.770;2024-02-21T02:50:54;75105.53;;;-149.71;88.12
53916;BME280;39827;49.652;18.770;2024-02-21T02:53:20;75103.53;;;-149.71;88.05
53916;BME280;39827;49.652;18.770;2024-02-21T02:55:45;75093.47;;;-149.71;87.82
53916;BME280;39827;49.652;18.770;2024-02-21T02:58:11;75107.53;;;-149.71;88.07
53916;BME280;39827;49.652;18.770;2024-02-21T03:00:36;75137.69;;;-149.71;88.71
53916;BME280;39827;49.652;18.770;2024-02-21T03:03:02;75129.66;;;-149.71;88.23
53916;BME280;39827;49.652;18.770;2024-02-21T03:05:29;75139.69;;;-149.71;88.46
53916;BME280;39827;49.652;18.770;2024-02-21T03:07:54;75141.72;;;-149.71;88.44
53916;BME280;39827;49.652;18.770;2024-02-21T03:10:20;75161.81;;;-149.71;88.82
53916;BME280;39827;49.652;18.770;2024-02-21T03:12:46;75167.84;;;-149.71;89.29
53916;BME280;39827;49.652;18.770;2024-02-21T03:15:11;75169.84;;;-149.71;89.35
53916;BME280;39827;49.652;18.770;2024-02-21T03:17:37;75171.84;;;-149.71;89.38
53916;BME280;39827;49.652;18.770;2024-02-21T03:20:04;75165.81;;;-149.71;89.44
53916;BME280;39827;49.652;18.770;2024-02-21T03:22:35;75153.75;;;-149.71;88.81
53916;BME280;39827;49.652;18.770;2024-02-21T03:25:01;75149.75;;;-149.71;88.84
53916;BME280;39827;49.652;18.770;2024-02-21T03:27:26;75157.78;;;-149.71;88.78
53916;BME280;39827;49.652;18.770;2024-02-21T03:29:52;75149.75;;;-149.71;88.76
53916;BME280;39827;49.652;18.770;2024-02-21T03:32:17;75139.69;;;-149.71;88.62
53916;BME280;39827;49.652;18.770;2024-02-21T03:34:43;75143.72;;;-149.71;88.58
53916;BME280;39827;49.652;18.770;2024-02-21T03:37:08;75139.69;;;-149.71;88.47
53916;BME280;39827;49.652;18.770;2024-02-21T03:39:33;75139.69;;;-149.71;88.23
53916;BME280;39827;49.652;18.770;2024-02-21T03:41:59;75147.75;;;-149.71;87.84
53916;BME280;39827;49.652;18.770;2024-02-21T03:44:32;75145.72;;;-149.71;88.33
53916;BME280;39827;49.652;18.770;2024-02-21T03:46:59;75143.72;;;-149.71;88.20
53916;BME280;39827;49.652;18.770;2024-02-21T03:49:25;75135.69;;;-149.71;87.82
53916;BME280;39827;49.652;18.770;2024-02-21T03:51:50;75143.72;;;-149.71;87.91
53916;BME280;39827;49.652;18.770;2024-02-21T03:54:15;75135.69;;;-149.71;87.69
53916;BME280;39827;49.652;18.770;2024-02-21T03:56:41;75139.69;;;-149.71;87.87
53916;BME280;39827;49.652;18.770;2024-02-21T03:59:07;75141.72;;;-149.71;87.96
53916;BME280;39827;49.652;18.770;2024-02-21T04:01:36;75137.69;;;-149.71;87.98
53916;BME280;39827;49.652;18.770;2024-02-21T04:04:02;75141.72;;;-149.71;87.67
53916;BME280;39827;49.652;18.770;2024-02-21T04:06:27;75117.59;;;-149.71;87.30
53916;BME280;39827;49.652;18.770;2024-02-21T04:08:53;75123.63;;;-149.71;87.46
53916;BME280;39827;49.652;18.770;2024-02-21T04:11:18;75117.59;;;-149.71;87.44
53916;BME280;39827;49.652;18.770;2024-02-21T04:13:44;75121.63;;;-149.71;87.67
53916;BME280;39827;49.652;18.770;2024-02-21T04:16:10;75121.63;;;-149.71;87.62
53916;BME280;39827;49.652;18.770;2024-02-21T04:18:36;75133.66;;;-149.71;87.77
53916;BME280;39827;49.652;18.770;2024-02-21T04:21:01;75127.63;;;-149.71;87.64
53916;BME280;39827;49.652;18.770;2024-02-21T04:23:27;75117.59;;;-149.71;87.42
53916;BME280;39827;49.652;18.770;2024-02-21T04:25:52;75119.59;;;-149.71;87.59
53916;BME280;39827;49.652;18.770;2024-02-21T04:28:17;75129.66;;;-149.71;87.62
53916;BME280;39827;49.652;18.770;2024-02-21T04:30:43;75119.59;;;-149.71;87.59
53916;BME280;39827;49.652;18.770;2024-02-21T04:33:08;75133.66;;;-149.71;87.46
53916;BME280;39827;49.652;18.770;2024-02-21T04:35:36;75135.69;;;-149.71;87.11
53916;BME280;39827;49.652;18.770;2024-02-21T04:38:01;75129.66;;;-149.71;87.09
53916;BME280;39827;49.652;18.770;2024-02-21T04:40:26;75135.69;;;-149.71;86.52
53916;BME280;39827;49.652;18.770;2024-02-21T04:42:52;75133.66;;;-149.71;86.75
53916;BME280;39827;49.652;18.770;2024-02-21T04:45:17;75121.63;;;-149.71;86.75
53916;BME280;39827;49.652;18.770;2024-02-21T04:47:43;75125.63;;;-149.71;86.56
53916;BME280;39827;49.652;18.770;2024-02-21T04:50:08;75147.75;;;-149.71;87.25
53916;BME280;39827;49.652;18.770;2024-02-21T04:52:34;75139.69;;;-149.71;87.31
53916;BME280;39827;49.652;18.770;2024-02-21T04:54:59;75153.75;;;-149.71;87.78
53916;BME280;39827;49.652;18.770;2024-02-21T04:57:24;75139.69;;;-149.71;87.68
53916;BME280;39827;49.652;18.770;2024-02-21T04:59:50;75141.72;;;-149.71;87.83
53916;BME280;39827;49.652;18.770;2024-02-21T05:02:15;75167.84;;;-149.71;88.41
53916;BME280;39827;49.652;18.770;2024-02-21T05:04:42;75165.81;;;-149.71;88.46
53916;BME280;39827;49.652;18.770;2024-02-21T05:07:08;75151.75;;;-149.71;88.00
53916;BME280;39827;49.652;18.770;2024-02-21T05:09:33;75169.84;;;-149.71;88.02
53916;BME280;39827;49.652;18.770;2024-02-21T05:11:59;75163.81;;;-149.71;88.22
53916;BME280;39827;49.652;18.770;2024-02-21T05:14:25;75165.81;;;-149.71;88.26
53916;BME280;39827;49.652;18.770;2024-02-21T05:16:52;75161.81;;;-149.71;88.08
53916;BME280;39827;49.652;18.770;2024-02-21T05:19:17;75159.78;;;-149.71;87.91
53916;BME280;39827;49.652;18.770;2024-02-21T05:21:43;75151.75;;;-149.71;87.82
53916;BME280;39827;49.652;18.770;2024-02-21T05:24:08;75135.69;;;-149.71;87.53
53916;BME280;39827;49.652;18.770;2024-02-21T05:26:33;75145.72;;;-149.71;87.51
53916;BME280;39827;49.652;18.770;2024-02-21T05:28:59;75139.69;;;-149.71;87.64
53916;BME280;39827;49.652;18.770;2024-02-21T05:31:25;75151.75;;;-149.71;87.73
53916;BME280;39827;49.652;18.770;2024-02-21T05:33:50;75175.88;;;-149.71;88.34
53916;BME280;39827;49.652;18.770;2024-02-21T05:36:16;75163.81;;;-149.71;88.09
53916;BME280;39827;49.652;18.770;2024-02-21T05:38:41;75167.84;;;-149.71;87.91
53916;BME280;39827;49.652;18.770;2024-02-21T05:41:06;75159.78;;;-149.71;87.69
53916;BME280;39827;49.652;18.770;2024-02-21T05:43:32;75145.72;;;-149.71;87.31
53916;BME280;39827;49.652;18.770;2024-02-21T05:45:57;75149.75;;;-149.71;87.13
53916;BME280;39827;49.652;18.770;2024-02-21T05:48:24;75151.75;;;-149.71;87.07
53916;BME280;39827;49.652;18.770;2024-02-21T05:50:50;75141.72;;;-149.71;86.51
53916;BME280;39827;49.652;18.770;2024-02-21T05:53:16;75139.69;;;-149.71;86.18
53916;BME280;39827;49.652;18.770;2024-02-21T05:55:41;75139.69;;;-149.71;85.93
53916;BME280;39827;49.652;18.770;2024-02-21T05:58:07;75151.75;;;-149.71;86.43
53916;BME280;39827;49.652;18.770;2024-02-21T06:00:35;75161.81;;;-149.71;87.15
53916;BME280;39827;49.652;18.770;2024-02-21T06:03:00;75151.75;;;-149.71;87.04
53916;BME280;39827;49.652;18.770;2024-02-21T06:05:27;75147.75;;;-149.71;86.75
53916;BME280;39827;49.652;18.770;2024-02-21T06:07:53;75157.78;;;-149.71;86.89
53916;BME280;39827;49.652;18.770;2024-02-21T06:10:18;75147.75;;;-149.71;86.65
53916;BME280;39827;49.652;18.770;2024-02-21T06:12:43;75165.81;;;-149.71;86.63
53916;BME280;39827;49.652;18.770;2024-02-21T06:15:09;75157.78;;;-149.71;86.73
53916;BME280;39827;49.652;18.770;2024-02-21T06:17:34;75157.78;;;-149.71;86.99
53916;BME280;39827;49.652;18.770;2024-02-21T06:20:00;75147.75;;;-149.71;87.17
53916;BME280;39827;49.652;18.770;2024-02-21T06:22:25;75141.72;;;-149.71;87.11
53916;BME280;39827;49.652;18.770;2024-02-21T06:24:50;75119.59;;;-149.71;86.37
53916;BME280;39827;49.652;18.770;2024-02-21T06:27:16;75105.53;;;-149.71;86.15
53916;BME280;39827;49.652;18.770;2024-02-21T06:29:42;75105.53;;;-149.71;86.02
53916;BME280;39827;49.652;18.770;2024-02-21T06:32:08;75097.50;;;-149.71;85.86
53916;BME280;39827;49.652;18.770;2024-02-21T06:34:33;75089.47;;;-149.71;85.89
53916;BME280;39827;49.652;18.770;2024-02-21T06:36:58;75087.44;;;-149.71;86.22
53916;BME280;39827;49.652;18.770;2024-02-21T06:39:24;75083.44;;;-149.71;86.63
53916;BME280;39827;49.652;18.770;2024-02-21T06:41:49;75061.31;;;-149.71;85.56
53916;BME280;39827;49.652;18.770;2024-02-21T06:44:19;75041.22;;;-149.71;84.99
53916;BME280;39827;49.652;18.770;2024-02-21T06:46:44;75035.19;;;-149.71;84.71
53916;BME280;39827;49.652;18.770;2024-02-21T06:49:09;75011.09;;;-149.71;84.08
53916;BME280;39827;49.652;18.770;2024-02-21T06:51:43;75007.06;;;-149.71;83.53
53916;BME280;39827;49.652;18.770;2024-02-21T06:54:09;74995.00;;;-149.71;83.52
53916;BME280;39827;49.652;18.770;2024-02-21T06:56:39;74991.00;;;-149.71;83.72
53916;BME280;39827;49.652;18.770;2024-02-21T06:59:05;74986.97;;;-149.71;84.11
53916;BME280;39827;49.652;18.770;2024-02-21T07:01:30;74968.88;;;-149.71;83.77
53916;BME280;39827;49.652;18.770;2024-02-21T07:03:56;74970.91;;;-149.71;83.91
53916;BME280;39827;49.652;18.770;2024-02-21T07:06:22;74956.84;;;-149.71;83.66
53916;BME280;39827;49.652;18.770;2024-02-21T07:08:47;74954.81;;;-149.71;82.82
53916;BME280;39827;49.652;18.770;2024-02-21T07:11:13;74934.72;;;-149.71;82.93
53916;BME280;39827;49.652;18.770;2024-02-21T07:13:38;74918.66;;;-149.71;83.38
53916;BME280;39827;49.652;18.770;2024-02-21T07:16:04;74906.59;;;-149.71;83.35
53916;BME280;39827;49.652;18.770;2024-02-21T07:18:29;74918.66;;;-149.71;83.60
53916;BME280;39827;49.652;18.770;2024-02-21T07:20:54;74914.63;;;-149.71;83.98
53916;BME280;39827;49.652;18.770;2024-02-21T07:23:20;74906.59;;;-149.71;84.29
53916;BME280;39827;49.652;18.770;2024-02-21T07:25:46;74924.69;;;-149.71;82.36
53916;BME280;39827;49.652;18.770;2024-02-21T07:28:11;74900.56;;;-149.71;82.54
53916;BME280;39827;49.652;18.770;2024-02-21T07:30:38;74908.59;;;-149.71;81.45
53916;BME280;39827;49.652;18.770;2024-02-21T07:33:03;74892.53;;;-149.71;81.38
53916;BME280;39827;49.652;18.770;2024-02-21T07:35:29;74902.56;;;-149.71;80.66
53916;BME280;39827;49.652;18.770;2024-02-21T07:37:54;74908.59;;;-149.71;80.61
53916;BME280;39827;49.652;18.770;2024-02-21T07:40:20;74900.56;;;-149.71;80.45
53916;BME280;39827;49.652;18.770;2024-02-21T07:42:45;74904.59;;;-149.71;80.94
53916;BME280;39827;49.652;18.770;2024-02-21T07:45:10;74896.53;;;-149.71;81.06
53916;BME280;39827;49.652;18.770;2024-02-21T07:47:36;74880.47;;;-149.71;79.74
53916;BME280;39827;49.652;18.770;2024-02-21T07:50:03;74880.47;;;-149.71;79.60
53916;BME280;39827;49.652;18.770;2024-02-21T07:52:29;74886.50;;;-149.71;80.83
53916;BME280;39827;49.652;18.770;2024-02-21T07:54:54;74882.47;;;-149.71;80.04
53916;BME280;39827;49.652;18.770;2024-02-21T07:57:19;74878.47;;;-149.71;80.45
53916;BME280;39827;49.652;18.770;2024-02-21T07:59:45;74870.41;;;-149.71;80.18
53916;BME280;39827;49.652;18.770;2024-02-21T08:02:13;74864.41;;;-149.71;80.06
53916;BME280;39827;49.652;18.770;2024-02-21T08:04:39;74858.38;;;-149.71;78.66
53916;BME280;39827;49.652;18.770;2024-02-21T08:07:04;74842.28;;;-149.71;79.58
53916;BME280;39827;49.652;18.770;2024-02-21T08:09:30;74852.34;;;-149.71;78.59
53916;BME280;39827;49.652;18.770;2024-02-21T08:11:55;74838.28;;;-149.71;78.82
53916;BME280;39827;49.652;18.770;2024-02-21T08:14:21;74832.25;;;-149.71;78.33
53916;BME280;39827;49.652;18.770;2024-02-21T08:16:47;74729.75;;;-149.71;76.74
53916;BME280;39827;49.652;18.770;2024-02-21T08:19:13;74683.56;;;-149.71;74.23
53916;BME280;39827;49.652;18.770;2024-02-21T08:21:38;74697.63;;;-149.71;74.53
53916;BME280;39827;49.652;18.770;2024-02-21T08:24:04;74701.63;;;-149.71;73.08
53916;BME280;39827;49.652;18.770;2024-02-21T08:26:30;74701.63;;;-149.71;74.70
53916;BME280;39827;49.652;18.770;2024-02-21T08:28:56;74733.78;;;-149.71;74.99
53916;BME280;39827;49.652;18.770;2024-02-21T08:31:26;74755.88;;;-149.71;75.77
53916;BME280;39827;49.652;18.770;2024-02-21T08:34:02;74767.94;;;-149.71;75.88
53916;BME280;39827;49.652;18.770;2024-02-21T08:36:29;74780.00;;;-149.71;76.85
53916;BME280;39827;49.652;18.770;2024-02-21T08:38:55;74822.19;;;-149.71;77.26
53916;BME280;39827;49.652;18.770;2024-02-21T08:41:20;74830.22;;;-149.71;78.10
53916;BME280;39827;49.652;18.770;2024-02-21T08:43:48;74830.22;;;-149.71;77.67
53916;BME280;39827;49.652;18.770;2024-02-21T08:46:14;74838.28;;;-149.71;78.33
53916;BME280;39827;49.652;18.770;2024-02-21T08:48:39;74824.22;;;-149.71;78.71
53916;BME280;39827;49.652;18.770;2024-02-21T08:51:05;74822.19;;;-149.71;78.40
53916;BME280;39827;49.652;18.770;2024-02-21T08:53:30;74814.16;;;-149.71;77.83
53916;BME280;39827;49.652;18.770;2024-02-21T08:55:56;74715.69;;;-149.71;76.17
53916;BME280;39827;49.652;18.770;2024-02-21T08:58:22;74480.59;;;-149.71;68.87
53916;BME280;39827;49.652;18.770;2024-02-21T09:00:49;74295.75;;;-149.71;64.41
53916;BME280;39827;49.652;18.770;2024-02-21T09:03:15;74092.84;;;-149.71;59.46
53916;BME280;39827;49.652;18.770;2024-02-21T09:05:40;74143.06;;;-149.71;57.15
53916;BME280;39827;49.652;18.770;2024-02-21T09:08:06;74074.75;;;-149.71;55.64
53916;BME280;39827;49.652;18.770;2024-02-21T09:10:31;73998.41;;;-149.71;54.22
53916;BME280;39827;49.652;18.770;2024-02-21T09:12:57;74155.13;;;-149.71;52.23
53916;BME280;39827;49.652;18.770;2024-02-21T09:15:22;74125.00;;;-149.71;52.18
53916;BME280;39827;49.652;18.770;2024-02-21T09:17:49;74149.09;;;-149.71;52.78
53916;BME280;39827;49.652;18.770;2024-02-21T09:20:14;74076.78;;;-149.71;50.90
53916;BME280;39827;49.652;18.770;2024-02-21T09:22:41;74018.50;;;-149.71;48.86
53916;BME280;39827;49.652;18.770;2024-02-21T09:25:07;74000.44;;;-149.71;49.04
53916;BME280;39827;49.652;18.770;2024-02-21T09:27:32;74050.66;;;-149.71;48.88
53916;BME280;39827;49.652;18.770;2024-02-21T09:29:58;74056.69;;;-149.71;49.60
53916;BME280;39827;49.652;18.770;2024-02-21T09:32:23;74064.72;;;-149.71;49.61
53916;BME280;39827;49.652;18.770;2024-02-21T09:34:48;73974.31;;;-149.71;47.67
53916;BME280;39827;49.652;18.770;2024-02-21T09:37:14;74157.13;;;-149.71;51.00
53916;BME280;39827;49.652;18.770;2024-02-21T09:39:39;74044.63;;;-149.71;48.87
53916;BME280;39827;49.652;18.770;2024-02-21T09:42:11;74181.25;;;-149.71;51.88
53916;BME280;39827;49.652;18.770;2024-02-21T09:44:37;74323.88;;;-149.71;55.09
53916;BME280;39827;49.652;18.770;2024-02-21T09:47:54;74438.41;;;-149.71;58.00
53916;BME280;39827;49.652;18.770;2024-02-21T09:49:52;74532.84;;;-149.71;62.10
53916;BME280;39827;49.652;18.770;2024-02-21T09:52:19;74597.16;;;-149.71;64.50
53916;BME280;39827;49.652;18.770;2024-02-21T09:54:47;74593.13;;;-149.71;64.69
53916;BME280;39827;49.652;18.770;2024-02-21T09:57:14;74581.06;;;-149.71;64.41
53916;BME280;39827;49.652;18.770;2024-02-21T09:59:40;74575.03;;;-149.71;65.18
53916;BME280;39827;49.652;18.770;2024-02-21T10:02:07;74575.03;;;-149.71;65.16
53916;BME280;39827;49.652;18.770;2024-02-21T10:04:32;74571.03;;;-149.71;65.55
53916;BME280;39827;49.652;18.770;2024-02-21T10:06:57;74579.06;;;-149.71;65.53
53916;BME280;39827;49.652;18.770;2024-02-21T10:09:24;74563.00;;;-149.71;63.31
53916;BME280;39827;49.652;18.770;2024-02-21T10:11:53;74476.59;;;-149.71;61.66
53916;BME280;39827;49.652;18.770;2024-02-21T10:14:19;74372.13;;;-149.71;58.98
53916;BME280;39827;49.652;18.770;2024-02-21T10:16:47;74265.63;;;-149.71;57.41
53916;BME280;39827;49.652;18.770;2024-02-21T10:19:19;74253.56;;;-149.71;54.09
53916;BME280;39827;49.652;18.770;2024-02-21T10:22:04;74209.38;;;-149.71;52.87
53916;BME280;39827;49.652;18.770;2024-02-21T10:24:30;74219.41;;;-149.71;52.52
53916;BME280;39827;49.652;18.770;2024-02-21T10:27:05;74110.94;;;-149.71;50.41
53916;BME280;39827;49.652;18.770;2024-02-21T10:29:33;73948.19;;;-149.71;47.19
53916;BME280;39827;49.652;18.770;2024-02-21T10:32:09;73966.28;;;-149.71;46.21
53916;BME280;39827;49.652;18.770;2024-02-21T10:34:37;73914.03;;;-149.71;47.49
53916;BME280;39827;49.652;18.770;2024-02-21T10:37:03;73851.75;;;-149.71;45.84
53916;BME280;39827;49.652;18.770;2024-02-21T10:39:29;73950.19;;;-149.71;44.35
53916;BME280;39827;49.652;18.770;2024-02-21T10:42:02;74028.56;;;-149.71;45.61
53916;BME280;39827;49.652;18.770;2024-02-21T10:44:30;73970.28;;;-149.71;45.68
53916;BME280;39827;49.652;18.770;2024-02-21T10:46:56;74042.63;;;-149.71;46.54
53916;BME280;39827;49.652;18.770;2024-02-21T10:49:23;74092.84;;;-149.71;46.34
53916;BME280;39827;49.652;18.770;2024-02-21T10:52:17;74068.72;;;-149.71;47.05
53916;BME280;39827;49.652;18.770;2024-02-21T10:54:58;74072.75;;;-149.71;46.91
53916;BME280;39827;49.652;18.770;2024-02-21T10:57:26;74078.78;;;-149.71;47.14
53916;BME280;39827;49.652;18.770;2024-02-21T10:59:53;74114.94;;;-149.71;48.16
53916;BME280;39827;49.652;18.770;2024-02-21T11:02:20;74205.34;;;-149.71;51.40
53916;BME280;39827;49.652;18.770;2024-02-21T11:04:46;74205.34;;;-149.71;51.19
53916;BME280;39827;49.652;18.770;2024-02-21T11:07:14;74227.44;;;-149.71;52.39
53916;BME280;39827;49.652;18.770;2024-02-21T11:09:50;74325.91;;;-149.71;53.01
53916;BME280;39827;49.652;18.770;2024-02-21T11:12:20;74370.09;;;-149.71;56.01
53916;BME280;39827;49.652;18.770;2024-02-21T11:14:46;74386.19;;;-149.71;54.82
53916;BME280;39827;49.652;18.770;2024-02-21T11:17:19;74416.31;;;-149.71;56.45
53916;BME280;39827;49.652;18.770;2024-02-21T11:19:45;74396.22;;;-149.71;56.48
53916;BME280;39827;49.652;18.770;2024-02-21T11:22:17;74386.19;;;-149.71;55.99
53916;BME280;39827;49.652;18.770;2024-02-21T11:24:43;74416.31;;;-149.71;56.65
53916;BME280;39827;49.652;18.770;2024-02-21T11:29:44;74384.16;;;-149.71;56.38
53916;BME280;39827;49.652;18.770;2024-02-21T11:32:10;74386.19;;;-149.71;57.13
53916;BME280;39827;49.652;18.770;2024-02-21T11:34:39;74386.19;;;-149.71;56.09
53916;BME280;39827;49.652;18.770;2024-02-21T11:37:14;74346.00;;;-149.71;55.75
53916;BME280;39827;49.652;18.770;2024-02-21T11:39:42;74346.00;;;-149.71;55.54
53916;BME280;39827;49.652;18.770;2024-02-21T11:42:09;74333.94;;;-149.71;55.78
53916;BME280;39827;49.652;18.770;2024-02-21T11:44:35;74291.75;;;-149.71;55.96
53916;BME280;39827;49.652;18.770;2024-02-21T11:47:03;74287.72;;;-149.71;55.54
53916;BME280;39827;49.652;18.770;2024-02-21T11:49:29;74396.22;;;-149.71;54.90
53916;BME280;39827;49.652;18.770;2024-02-21T11:51:58;74378.13;;;-149.71;56.03
53916;BME280;39827;49.652;18.770;2024-02-21T11:54:24;74400.25;;;-149.71;56.76
53916;BME280;39827;49.652;18.770;2024-02-21T11:56:49;74468.56;;;-149.71;57.12
53916;BME280;39827;49.652;18.770;2024-02-21T11:59:15;74416.31;;;-149.71;56.69
53916;BME280;39827;49.652;18.770;2024-02-21T12:01:40;74410.28;;;-149.71;57.97
53916;BME280;39827;49.652;18.770;2024-02-21T12:04:06;74394.22;;;-149.71;58.73
53916;BME280;39827;49.652;18.770;2024-02-21T12:06:32;74382.16;;;-149.71;59.71
53916;BME280;39827;49.652;18.770;2024-02-21T12:08:58;74372.13;;;-149.71;58.49
53916;BME280;39827;49.652;18.770;2024-02-21T12:11:23;74410.28;;;-149.71;59.05
53916;BME280;39827;49.652;18.770;2024-02-21T12:13:59;74422.34;;;-149.71;59.86
53916;BME280;39827;49.652;18.770;2024-02-21T12:16:27;74418.31;;;-149.71;60.06
53916;BME280;39827;49.652;18.770;2024-02-21T12:18:54;74448.47;;;-149.71;59.33
53916;BME280;39827;49.652;18.770;2024-02-21T12:21:23;74424.34;;;-149.71;60.94
53916;BME280;39827;49.652;18.770;2024-02-21T12:23:49;74410.28;;;-149.71;60.77
53916;BME280;39827;49.652;18.770;2024-02-21T12:26:14;74398.22;;;-149.71;60.54
53916;BME280;39827;49.652;18.770;2024-02-21T12:28:39;74374.13;;;-149.71;60.66